松山國際航空站 - 塔臺

METAR RCSS 301600Z 08011KT CAVOK 14/07 Q1020 NOSIG RMK A3014(Z)=

站台狀態:Offline
最後更新:2023-01-31 00:00:02